createdAt,value
2019-06-27T00:00:27.322Z,19.25
2019-06-27T00:01:30.104Z,20.00
2019-06-27T00:02:33.450Z,19.75
2019-06-27T00:03:36.332Z,18.00
2019-06-27T00:04:40.066Z,20.25
2019-06-27T00:05:42.804Z,19.00
2019-06-27T00:06:46.143Z,20.00
2019-06-27T00:07:48.891Z,16.75
2019-06-27T00:08:52.202Z,15.50
2019-06-27T00:09:55.032Z,17.25
2019-06-27T00:10:58.754Z,17.50
2019-06-27T00:12:01.523Z,18.00
2019-06-27T00:13:05.138Z,18.00
2019-06-27T00:14:07.887Z,18.25
2019-06-27T00:15:11.304Z,19.00
2019-06-27T00:16:14.041Z,17.00
2019-06-27T00:17:18.377Z,17.75
2019-06-27T00:18:22.190Z,17.50
2019-06-27T00:19:25.566Z,13.25
2019-06-27T00:20:28.565Z,19.25
2019-06-27T00:21:32.119Z,16.75
2019-06-27T00:22:34.901Z,17.25
2019-06-27T00:23:38.657Z,17.00
2019-06-27T00:24:41.533Z,18.75
2019-06-27T00:25:45.163Z,18.00
2019-06-27T00:26:56.924Z,17.00
2019-06-27T00:27:52.993Z,13.75
2019-06-27T00:28:55.820Z,15.25
2019-06-27T00:29:59.587Z,19.00
2019-06-27T00:31:02.357Z,18.50
2019-06-27T00:32:05.703Z,17.00
2019-06-27T00:33:08.543Z,14.25
2019-06-27T00:34:11.893Z,16.00
2019-06-27T00:35:14.654Z,16.00
2019-06-27T00:36:18.310Z,16.75
2019-06-27T00:37:21.040Z,15.25
2019-06-27T00:38:24.386Z,16.25
2019-06-27T00:39:27.147Z,15.50
2019-06-27T00:40:30.462Z,15.75
2019-06-27T00:41:33.280Z,16.75
2019-06-27T00:42:36.942Z,15.50
2019-06-27T00:43:40.121Z,15.50
2019-06-27T00:44:43.475Z,18.00
2019-06-27T00:45:46.243Z,14.25
2019-06-27T00:46:49.642Z,17.25
2019-06-27T00:47:52.387Z,15.00
2019-06-27T00:48:56.056Z,16.25
2019-06-27T00:49:58.803Z,15.00
2019-06-27T00:51:02.145Z,13.00
2019-06-27T00:52:04.977Z,11.00
2019-06-27T00:53:08.304Z,15.00
2019-06-27T00:54:11.049Z,16.00
2019-06-27T00:55:14.672Z,15.00
2019-06-27T00:56:17.527Z,14.50
2019-06-27T00:57:20.972Z,13.50
2019-06-27T00:58:23.727Z,14.50
2019-06-27T00:59:27.076Z,15.25
2019-06-27T01:00:29.919Z,15.50
2019-06-27T01:01:33.560Z,12.00
2019-06-27T01:02:36.371Z,12.50
2019-06-27T01:03:39.752Z,14.50
2019-06-27T01:04:42.529Z,13.00
2019-06-27T01:05:45.887Z,15.50
2019-06-27T01:06:48.744Z,14.50
2019-06-27T01:07:52.478Z,15.25
2019-06-27T01:08:55.246Z,15.50
2019-06-27T01:10:01.145Z,14.00
2019-06-27T01:11:02.992Z,14.25
2019-06-27T01:12:06.358Z,17.50
2019-06-27T01:13:09.185Z,17.00
2019-06-27T01:14:14.112Z,12.75
2019-06-27T01:15:16.879Z,12.75
2019-06-27T01:16:20.229Z,14.00
2019-06-27T01:17:23.005Z,14.00
2019-06-27T01:18:26.405Z,11.25
2019-06-27T01:19:29.183Z,12.75
2019-06-27T01:20:32.837Z,14.25
2019-06-27T01:21:35.582Z,12.50
2019-06-27T01:22:39.002Z,13.00
2019-06-27T01:23:44.881Z,14.00
2019-06-27T01:24:47.186Z,13.75
2019-06-27T01:25:49.967Z,13.75
2019-06-27T01:26:53.669Z,14.75
2019-06-27T01:27:56.442Z,13.75
2019-06-27T01:28:59.886Z,12.50
2019-06-27T01:30:02.671Z,14.25
2019-06-27T01:31:06.105Z,14.00
2019-06-27T01:32:08.860Z,14.50
2019-06-27T01:33:12.685Z,15.00
2019-06-27T01:34:15.474Z,13.75
2019-06-27T01:35:18.881Z,14.50
2019-06-27T01:36:21.714Z,14.00
2019-06-27T01:37:25.036Z,13.75
2019-06-27T01:38:27.806Z,14.75
2019-06-27T01:39:31.439Z,13.00
2019-06-27T01:40:34.242Z,15.00
2019-06-27T01:41:37.620Z,13.00
2019-06-27T01:42:40.367Z,13.75
2019-06-27T01:43:43.698Z,15.00
2019-06-27T01:44:57.238Z,12.75
2019-06-27T01:46:00.771Z,12.75
2019-06-27T01:47:03.851Z,13.75
2019-06-27T01:48:07.199Z,13.00
2019-06-27T01:49:09.974Z,11.50
2019-06-27T01:50:13.722Z,14.25
2019-06-27T01:51:17.056Z,12.00
2019-06-27T01:52:20.419Z,14.25
2019-06-27T01:53:23.627Z,12.00
2019-06-27T01:54:26.989Z,13.00
2019-06-27T01:55:29.823Z,13.50
2019-06-27T01:56:33.198Z,13.25
2019-06-27T01:57:46.214Z,13.00
2019-06-27T01:58:41.243Z,12.75
2019-06-27T01:59:43.993Z,14.00
2019-06-27T02:00:47.438Z,13.25
2019-06-27T02:01:50.212Z,12.00
2019-06-27T02:02:53.560Z,13.00
2019-06-27T02:03:57.973Z,14.00
2019-06-27T02:05:01.359Z,12.50
2019-06-27T02:06:04.459Z,13.75
2019-06-27T02:07:07.803Z,14.00
2019-06-27T02:08:10.570Z,12.00
2019-06-27T02:09:14.072Z,13.00
2019-06-27T02:10:17.122Z,12.00
2019-06-27T02:11:20.553Z,12.25
2019-06-27T02:12:23.298Z,12.00
2019-06-27T02:13:26.719Z,13.00
2019-06-27T02:14:29.615Z,14.75
2019-06-27T02:15:32.969Z,13.75
2019-06-27T02:16:36.010Z,15.00
2019-06-27T02:17:39.341Z,14.00
2019-06-27T02:18:42.087Z,13.50
2019-06-27T02:19:45.513Z,12.25
2019-06-27T02:20:48.317Z,13.00
2019-06-27T02:21:51.915Z,14.50
2019-06-27T02:22:55.318Z,15.00
2019-06-27T02:23:58.748Z,13.25
2019-06-27T02:25:01.706Z,12.00
2019-06-27T02:26:05.088Z,14.25
2019-06-27T02:27:07.842Z,15.75
2019-06-27T02:28:11.189Z,12.00
2019-06-27T02:29:14.439Z,13.00
2019-06-27T02:30:17.953Z,14.00
2019-06-27T02:31:20.876Z,14.00
2019-06-27T02:32:24.372Z,12.25
2019-06-27T02:33:27.344Z,11.00
2019-06-27T02:34:30.826Z,14.25
2019-06-27T02:35:34.092Z,14.25
2019-06-27T02:36:37.465Z,13.00
2019-06-27T02:37:40.375Z,16.00
2019-06-27T02:38:43.724Z,14.00
2019-06-27T02:39:46.694Z,13.00
2019-06-27T02:40:50.519Z,15.00
2019-06-27T02:41:53.500Z,13.00
2019-06-27T02:42:56.854Z,12.00
2019-06-27T02:43:59.693Z,13.25
2019-06-27T02:45:03.086Z,14.50
2019-06-27T02:46:05.828Z,14.50
2019-06-27T02:47:10.009Z,12.00
2019-06-27T02:48:12.837Z,14.25
2019-06-27T02:49:16.160Z,11.00
2019-06-27T02:50:18.939Z,15.75
2019-06-27T02:51:22.369Z,17.25
2019-06-27T02:52:25.117Z,14.50
2019-06-27T02:53:28.790Z,13.00
2019-06-27T02:54:31.584Z,13.75
2019-06-27T02:55:34.992Z,16.25
2019-06-27T02:56:38.157Z,12.25
2019-06-27T02:57:41.486Z,11.25
2019-06-27T02:58:44.248Z,13.00
2019-06-27T02:59:47.895Z,17.25
2019-06-27T03:00:51.107Z,13.50
2019-06-27T03:01:54.459Z,12.00
2019-06-27T03:02:57.243Z,14.00
2019-06-27T03:04:00.618Z,14.25
2019-06-27T03:05:05.429Z,13.00
2019-06-27T03:06:09.071Z,13.00
2019-06-27T03:07:11.924Z,12.75
2019-06-27T03:08:15.246Z,14.50
2019-06-27T03:09:17.991Z,11.50
2019-06-27T03:10:21.422Z,14.00
2019-06-27T03:11:24.205Z,13.75
2019-06-27T03:12:27.861Z,13.00
2019-06-27T03:13:30.630Z,13.75
2019-06-27T03:14:33.959Z,14.25
2019-06-27T03:15:36.794Z,13.25
2019-06-27T03:16:40.176Z,13.75
2019-06-27T03:17:42.928Z,14.00
2019-06-27T03:18:46.549Z,13.75
2019-06-27T03:19:49.385Z,13.25
2019-06-27T03:20:52.823Z,13.50
2019-06-27T03:21:55.589Z,12.00
2019-06-27T03:22:58.908Z,14.00
2019-06-27T03:24:01.672Z,13.00
2019-06-27T03:25:05.746Z,14.00
2019-06-27T03:26:08.560Z,14.00
2019-06-27T03:27:11.913Z,14.50
2019-06-27T03:28:14.738Z,13.75
2019-06-27T03:29:20.465Z,13.50
2019-06-27T03:30:22.457Z,15.50
2019-06-27T03:31:26.222Z,13.00
2019-06-27T03:32:28.955Z,12.00
2019-06-27T03:33:32.371Z,14.25
2019-06-27T03:34:35.182Z,15.50
2019-06-27T03:35:38.498Z,16.25
2019-06-27T03:36:41.342Z,13.25
2019-06-27T03:37:45.222Z,14.50
2019-06-27T03:38:47.976Z,13.00
2019-06-27T03:39:51.308Z,14.00
2019-06-27T03:40:54.052Z,13.50
2019-06-27T03:41:57.488Z,12.75
2019-06-27T03:43:00.692Z,14.00
2019-06-27T03:44:04.359Z,14.00
2019-06-27T03:45:07.197Z,15.75
2019-06-27T03:46:10.590Z,15.25
2019-06-27T03:47:13.336Z,12.75
2019-06-27T03:48:16.686Z,13.50
2019-06-27T03:49:19.751Z,12.75
2019-06-27T03:50:23.194Z,13.25
2019-06-27T03:51:25.966Z,12.25
2019-06-27T03:52:29.375Z,15.50
2019-06-27T03:53:32.156Z,14.25
2019-06-27T03:54:35.490Z,13.00
2019-06-27T03:55:38.590Z,16.50
2019-06-27T03:56:42.050Z,15.00
2019-06-27T03:57:45.592Z,14.75
2019-06-27T03:58:49.060Z,17.00
2019-06-27T03:59:51.839Z,15.00
2019-06-27T04:00:55.191Z,15.00
2019-06-27T04:01:58.756Z,14.00
2019-06-27T04:03:02.103Z,13.25
2019-06-27T04:04:05.003Z,14.00
2019-06-27T04:05:08.360Z,16.50
2019-06-27T04:06:11.337Z,13.25
2019-06-27T04:07:14.705Z,13.00
2019-06-27T04:08:17.904Z,15.25
2019-06-27T04:09:21.411Z,13.50
2019-06-27T04:10:24.258Z,17.25
2019-06-27T04:11:27.760Z,14.50
2019-06-27T04:12:30.723Z,15.50
2019-06-27T04:13:34.492Z,16.50
2019-06-27T04:14:37.728Z,15.25
2019-06-27T04:15:41.290Z,14.00
2019-06-27T04:16:48.727Z,13.00
2019-06-27T04:17:49.191Z,15.25
2019-06-27T04:18:51.950Z,13.00
2019-06-27T04:19:55.737Z,17.00
2019-06-27T04:20:58.779Z,15.75
2019-06-27T04:22:02.273Z,14.25
2019-06-27T04:23:05.078Z,16.00
2019-06-27T04:24:08.451Z,20.00
2019-06-27T04:25:11.188Z,13.25
2019-06-27T04:26:14.529Z,13.25
2019-06-27T04:27:17.691Z,15.75
2019-06-27T04:28:21.090Z,15.75
2019-06-27T04:29:33.606Z,15.25
2019-06-27T04:30:28.943Z,13.25
2019-06-27T04:31:31.730Z,15.50
2019-06-27T04:32:35.087Z,14.50
2019-06-27T04:33:38.127Z,14.00
2019-06-27T04:34:41.613Z,14.00
2019-06-27T04:35:44.361Z,16.25
2019-06-27T04:36:47.724Z,12.25
2019-06-27T04:37:50.580Z,12.75
2019-06-27T04:38:54.055Z,18.50
2019-06-27T04:39:56.811Z,13.75
2019-06-27T04:41:00.172Z,13.25
2019-06-27T04:42:03.057Z,14.75
2019-06-27T04:43:06.583Z,15.75
2019-06-27T04:44:09.457Z,14.00
2019-06-27T04:45:14.246Z,16.00
2019-06-27T04:46:17.073Z,16.00
2019-06-27T04:47:20.427Z,16.50
2019-06-27T04:48:23.219Z,16.75
2019-06-27T04:49:26.547Z,13.25
2019-06-27T04:50:29.308Z,18.00
2019-06-27T04:51:33.034Z,12.75
2019-06-27T04:52:35.836Z,13.75
2019-06-27T04:53:39.270Z,14.75
2019-06-27T04:54:42.026Z,16.50
2019-06-27T04:55:45.390Z,13.25
2019-06-27T04:56:48.162Z,14.25
2019-06-27T04:57:51.867Z,14.25
2019-06-27T04:58:54.710Z,15.00
2019-06-27T04:59:58.111Z,16.25
2019-06-27T05:01:00.919Z,14.00
2019-06-27T05:02:04.280Z,15.00
2019-06-27T05:03:07.072Z,15.50
2019-06-27T05:04:10.494Z,15.00
2019-06-27T05:05:13.283Z,17.00
2019-06-27T05:06:16.722Z,25.25
2019-06-27T05:07:19.544Z,16.50
2019-06-27T05:08:22.942Z,24.00
2019-06-27T05:09:25.777Z,21.75
2019-06-27T05:10:29.717Z,20.25
2019-06-27T05:11:32.964Z,17.50
2019-06-27T05:12:36.360Z,16.50
2019-06-27T05:13:39.188Z,14.50
2019-06-27T05:14:42.564Z,13.75
2019-06-27T05:15:45.342Z,14.50
2019-06-27T05:16:48.994Z,13.25
2019-06-27T05:17:51.836Z,13.75
2019-06-27T05:18:55.207Z,13.75
2019-06-27T05:19:58.006Z,13.50
2019-06-27T05:21:01.357Z,13.25
2019-06-27T05:22:04.170Z,17.25
2019-06-27T05:23:07.903Z,13.50
2019-06-27T05:24:10.669Z,11.75
2019-06-27T05:25:14.047Z,13.00
2019-06-27T05:26:16.849Z,13.00
2019-06-27T05:27:20.240Z,12.00
2019-06-27T05:28:23.111Z,13.00
2019-06-27T05:29:26.880Z,13.00
2019-06-27T05:43:46.537Z,14.00
2019-06-27T05:44:49.932Z,14.00
2019-06-27T05:45:52.903Z,14.50
2019-06-27T05:46:56.746Z,15.00
2019-06-27T05:47:59.768Z,15.00
2019-06-27T05:49:03.673Z,13.25
2019-06-27T05:50:06.528Z,15.00
2019-06-27T05:51:09.884Z,15.75
2019-06-27T05:52:12.677Z,12.75
2019-06-27T05:53:16.086Z,13.75
2019-06-27T05:54:19.093Z,12.75
2019-06-27T05:55:22.794Z,11.00
2019-06-27T05:56:25.556Z,12.00
2019-06-27T05:57:28.924Z,12.75
2019-06-27T05:58:31.820Z,14.50
2019-06-27T05:59:35.254Z,12.00
2019-06-27T06:00:38.080Z,11.25
2019-06-27T06:01:41.735Z,10.00
2019-06-27T06:02:44.509Z,15.25
2019-06-27T06:03:47.894Z,13.50
2019-06-27T06:04:50.702Z,12.75
2019-06-27T06:05:54.366Z,11.00
2019-06-27T06:06:57.242Z,13.00
2019-06-27T06:08:00.872Z,12.00
2019-06-27T06:09:22.878Z,11.75
2019-06-27T06:10:26.392Z,12.50
2019-06-27T06:11:29.213Z,11.50
2019-06-27T06:12:32.631Z,10.00
2019-06-27T06:13:35.608Z,11.75
2019-06-27T06:14:39.503Z,12.00
2019-06-27T06:15:42.267Z,15.50
2019-06-27T06:16:45.593Z,18.25
2019-06-27T06:17:48.468Z,13.50
2019-06-27T06:18:52.053Z,13.00
2019-06-27T06:19:54.822Z,12.50
2019-06-27T06:20:58.639Z,8.75
2019-06-27T06:22:01.524Z,10.75
2019-06-27T06:23:04.955Z,9.75
2019-06-27T06:24:07.749Z,11.00
2019-06-27T06:25:11.123Z,12.00
2019-06-27T06:26:14.250Z,11.75
2019-06-27T06:27:17.959Z,11.00
2019-06-27T06:28:20.828Z,11.75
2019-06-27T06:29:24.280Z,10.75
2019-06-27T06:30:42.727Z,9.50
2019-06-27T06:31:32.105Z,11.00
2019-06-27T06:32:35.952Z,9.50
2019-06-27T06:33:39.612Z,9.00
2019-06-27T06:34:42.325Z,12.00
2019-06-27T06:35:46.260Z,10.75
2019-06-27T06:36:49.007Z,8.75
2019-06-27T06:37:52.377Z,11.00
2019-06-27T06:38:55.158Z,12.00
2019-06-27T06:39:58.877Z,8.00
2019-06-27T06:41:01.627Z,11.50
2019-06-27T06:42:05.280Z,9.75
2019-06-27T06:43:07.988Z,9.50
2019-06-27T06:44:11.597Z,9.50
2019-06-27T06:45:14.223Z,9.75
2019-06-27T06:46:17.894Z,8.50
2019-06-27T06:47:20.693Z,11.75
2019-06-27T06:48:24.063Z,25.00
2019-06-27T06:49:26.857Z,23.50
2019-06-27T06:50:30.425Z,13.75
2019-06-27T06:51:33.225Z,14.75
2019-06-27T06:52:36.806Z,12.75
2019-06-27T06:53:39.843Z,9.25
2019-06-27T06:54:43.042Z,9.75
2019-06-27T06:55:45.725Z,8.75
2019-06-27T06:56:48.939Z,8.25
2019-06-27T06:57:51.695Z,9.75
2019-06-27T06:58:55.753Z,8.75
2019-06-27T06:59:58.375Z,9.00
2019-06-27T07:01:02.663Z,9.00
2019-06-27T07:02:05.448Z,9.00
2019-06-27T07:03:09.260Z,11.75
2019-06-27T07:04:12.399Z,7.50
2019-06-27T07:05:17.744Z,11.00
2019-06-27T07:06:20.469Z,10.00
2019-06-27T07:07:23.951Z,9.00
2019-06-27T07:08:26.702Z,9.00
2019-06-27T07:09:30.064Z,9.25
2019-06-27T07:10:32.864Z,8.75
2019-06-27T07:11:36.549Z,9.00
2019-06-27T07:12:39.617Z,8.00
2019-06-27T07:13:43.175Z,8.00
2019-06-27T07:14:45.983Z,10.25
2019-06-27T07:15:49.207Z,8.75
2019-06-27T07:16:52.033Z,7.50
2019-06-27T07:17:55.575Z,9.00
2019-06-27T07:18:58.787Z,8.50
2019-06-27T07:20:02.207Z,9.50
2019-06-27T07:21:04.823Z,7.50
2019-06-27T07:22:08.348Z,8.00
2019-06-27T07:23:10.953Z,8.25
2019-06-27T07:24:14.425Z,8.75
2019-06-27T07:25:17.036Z,9.00
2019-06-27T07:26:22.376Z,10.00
2019-06-27T07:27:24.721Z,7.25
2019-06-27T07:28:28.112Z,9.00
2019-06-27T07:29:30.734Z,6.75
2019-06-27T07:30:34.851Z,8.25
2019-06-27T07:31:37.570Z,9.00
2019-06-27T07:32:40.876Z,7.50
2019-06-27T07:33:43.540Z,7.50
2019-06-27T07:34:47.336Z,12.00
2019-06-27T07:35:50.118Z,12.25
2019-06-27T07:36:53.960Z,9.50
2019-06-27T07:37:56.651Z,6.00
2019-06-27T07:39:00.117Z,8.00
2019-06-27T07:40:03.009Z,9.00
2019-06-27T07:41:06.409Z,8.50
2019-06-27T07:42:09.148Z,9.50
2019-06-27T07:43:12.814Z,10.00
2019-06-27T07:44:15.656Z,8.25
2019-06-27T07:45:19.020Z,8.00
2019-06-27T07:46:25.612Z,7.25
2019-06-27T07:47:26.789Z,9.00
2019-06-27T07:48:29.995Z,10.25
2019-06-27T07:49:33.758Z,10.25
2019-06-27T07:50:36.627Z,8.00
2019-06-27T07:51:40.429Z,7.00
2019-06-27T07:52:43.345Z,13.00
2019-06-27T07:53:48.979Z,10.00
2019-06-27T07:54:51.735Z,8.25
2019-06-27T07:55:55.609Z,7.50
2019-06-27T07:56:58.413Z,7.50
2019-06-27T07:58:01.783Z,6.50
2019-06-27T07:59:04.925Z,7.00
2019-06-27T08:00:08.982Z,14.00
2019-06-27T08:01:12.922Z,8.75
2019-06-27T08:02:17.012Z,10.75
2019-06-27T08:03:19.836Z,11.00
2019-06-27T08:04:23.072Z,7.00
2019-06-27T08:05:26.690Z,8.50
2019-06-27T08:06:30.127Z,9.75
2019-06-27T08:07:33.072Z,6.75
2019-06-27T08:08:39.050Z,7.00
2019-06-27T08:09:41.882Z,7.00
2019-06-27T08:10:45.296Z,6.00
2019-06-27T08:11:48.168Z,6.00
2019-06-27T08:12:52.059Z,7.25
2019-06-27T08:13:54.942Z,7.75
2019-06-27T08:15:03.218Z,8.00
2019-06-27T08:16:06.546Z,6.75
2019-06-27T08:17:11.269Z,7.00
2019-06-27T08:18:14.090Z,6.00
2019-06-27T08:19:17.936Z,6.50
2019-06-27T08:20:21.439Z,6.00
2019-06-27T08:21:25.505Z,5.50
2019-06-27T08:22:28.257Z,7.00
2019-06-27T08:23:41.548Z,6.00
2019-06-27T08:24:36.105Z,7.50
2019-06-27T08:25:39.530Z,6.50
2019-06-27T08:26:42.286Z,9.25
2019-06-27T08:27:46.075Z,11.75
2019-06-27T08:28:48.892Z,10.75
2019-06-27T08:29:52.186Z,7.00
2019-06-27T08:30:54.983Z,8.75
2019-06-27T08:31:59.403Z,6.00
2019-06-27T08:33:02.561Z,6.50
2019-06-27T08:34:06.359Z,6.50
2019-06-27T08:35:09.195Z,7.00
2019-06-27T08:36:12.569Z,7.00
2019-06-27T08:37:15.226Z,6.00
2019-06-27T08:38:18.553Z,7.50
2019-06-27T08:39:21.170Z,7.00
2019-06-27T08:40:24.878Z,7.25
2019-06-27T08:41:27.628Z,8.50
2019-06-27T08:42:30.980Z,6.75
2019-06-27T08:43:33.829Z,8.00
2019-06-27T08:44:37.300Z,8.50
2019-06-27T08:45:40.480Z,7.50
2019-06-27T08:46:43.873Z,7.00
2019-06-27T08:47:46.752Z,7.75
2019-06-27T08:48:50.078Z,8.75
2019-06-27T08:49:52.686Z,7.25
2019-06-27T08:50:56.023Z,8.00
2019-06-27T08:51:59.830Z,8.00
2019-06-27T08:53:03.201Z,7.75
2019-06-27T08:54:05.871Z,7.75
2019-06-27T08:55:09.215Z,7.25
2019-06-27T08:56:12.397Z,7.00
2019-06-27T08:57:15.786Z,7.00
2019-06-27T08:58:19.873Z,7.00
2019-06-27T08:59:23.174Z,6.00
2019-06-27T09:00:25.964Z,7.00
2019-06-27T09:01:29.276Z,6.25
2019-06-27T09:02:31.855Z,7.00
2019-06-27T09:03:35.076Z,8.00
2019-06-27T09:04:38.047Z,7.00
2019-06-27T09:05:41.391Z,6.00
2019-06-27T09:06:44.209Z,8.00
2019-06-27T09:07:47.426Z,7.75
2019-06-27T09:08:50.185Z,10.00
2019-06-27T09:09:53.508Z,7.75
2019-06-27T09:10:56.408Z,8.00
2019-06-27T09:11:59.567Z,7.00
2019-06-27T09:13:02.365Z,6.25
2019-06-27T09:14:05.603Z,7.25
2019-06-27T09:15:08.479Z,6.00
2019-06-27T09:16:11.714Z,7.00
2019-06-27T09:17:14.597Z,7.25
2019-06-27T09:18:17.861Z,8.00
2019-06-27T09:19:20.956Z,6.75
2019-06-27T09:20:24.497Z,7.00
2019-06-27T09:21:27.305Z,6.75
2019-06-27T09:22:32.727Z,5.25
2019-06-27T09:23:37.636Z,6.50
2019-06-27T09:24:41.209Z,6.00
2019-06-27T09:25:44.019Z,7.25
2019-06-27T09:26:47.388Z,8.00
2019-06-27T09:27:50.016Z,7.50
2019-06-27T09:28:53.789Z,6.00
2019-06-27T09:29:57.011Z,5.25
2019-06-27T09:31:00.316Z,6.00
2019-06-27T09:32:02.986Z,5.00
2019-06-27T09:33:06.247Z,5.75
2019-06-27T09:34:09.014Z,4.50
2019-06-27T09:35:12.275Z,5.00
2019-06-27T09:36:15.349Z,5.25
2019-06-27T09:37:18.659Z,4.50
2019-06-27T09:38:21.417Z,4.00
2019-06-27T09:39:26.966Z,5.25
2019-06-27T09:40:29.108Z,4.25
2019-06-27T09:41:32.787Z,4.00
2019-06-27T09:42:35.866Z,5.00
2019-06-27T09:43:39.062Z,5.75
2019-06-27T09:44:42.366Z,5.00
2019-06-27T09:45:45.780Z,6.00
2019-06-27T09:46:48.491Z,7.50
2019-06-27T09:47:52.039Z,6.25
2019-06-27T09:48:54.959Z,6.00
2019-06-27T09:50:01.679Z,7.00
2019-06-27T09:51:04.442Z,6.75
2019-06-27T09:52:07.873Z,5.75
2019-06-27T09:53:10.636Z,6.00
2019-06-27T09:54:14.471Z,7.00
2019-06-27T09:55:17.248Z,6.25
2019-06-27T09:56:20.663Z,7.00
2019-06-27T09:57:23.612Z,6.25
2019-06-27T09:58:26.951Z,6.00
2019-06-27T09:59:29.741Z,6.00
2019-06-27T10:00:33.489Z,5.00
2019-06-27T10:01:36.633Z,6.50
2019-06-27T10:02:42.334Z,5.25
2019-06-27T10:03:44.670Z,6.00
2019-06-27T10:04:48.114Z,6.00
2019-06-27T10:05:50.796Z,5.50
2019-06-27T10:06:54.400Z,6.50
2019-06-27T10:07:57.202Z,7.00
2019-06-27T10:09:00.539Z,6.00
2019-06-27T10:10:03.249Z,5.25
2019-06-27T10:11:06.560Z,6.00
2019-06-27T10:12:09.174Z,4.00
2019-06-27T10:13:12.420Z,4.50
2019-06-27T10:14:15.233Z,4.75
2019-06-27T10:15:18.647Z,4.00
2019-06-27T10:16:21.521Z,4.00
2019-06-27T10:17:25.162Z,4.00
2019-06-27T10:18:28.336Z,5.00
2019-06-27T10:19:31.923Z,5.50
2019-06-27T10:20:34.789Z,5.00
2019-06-27T10:21:38.338Z,6.00
2019-06-27T10:22:41.108Z,6.00
2019-06-27T10:23:45.120Z,4.25
2019-06-27T10:24:48.583Z,4.50
2019-06-27T10:25:51.987Z,5.50
2019-06-27T10:26:54.800Z,4.00
2019-06-27T10:27:58.143Z,5.75
2019-06-27T10:29:00.917Z,7.75
2019-06-27T10:42:53.207Z,5.00
2019-06-27T10:43:58.537Z,3.75
2019-06-27T10:45:01.973Z,5.00
2019-06-27T10:46:05.770Z,4.00
2019-06-27T10:47:09.210Z,5.00
2019-06-27T10:48:12.695Z,5.75
2019-06-27T10:49:15.465Z,5.25
2019-06-27T10:50:18.941Z,4.00
2019-06-27T10:51:21.604Z,4.00
2019-06-27T10:52:25.251Z,3.00
2019-06-27T10:53:28.154Z,5.75
2019-06-27T10:54:31.900Z,5.25
2019-06-27T10:55:35.326Z,5.75
2019-06-27T10:56:40.095Z,4.00
2019-06-27T10:57:43.077Z,4.00
2019-06-27T10:58:46.395Z,3.25
2019-06-27T10:59:49.053Z,4.00
2019-06-27T11:00:52.565Z,4.00
2019-06-27T11:01:55.287Z,3.00
2019-06-27T11:03:14.044Z,2.75
2019-06-27T11:04:02.958Z,2.25
2019-06-27T11:05:06.426Z,3.00
2019-06-27T11:06:09.147Z,3.00
2019-06-27T11:07:12.851Z,11.75
2019-06-27T11:08:15.483Z,3.00
2019-06-27T11:09:18.854Z,4.00
2019-06-27T11:10:22.237Z,4.50
2019-06-27T11:11:25.423Z,4.00
2019-06-27T11:12:28.169Z,4.75
2019-06-27T11:13:32.461Z,8.00
2019-06-27T11:14:35.222Z,5.00
2019-06-27T11:15:38.686Z,3.00
2019-06-27T11:16:42.024Z,3.00
2019-06-27T11:17:45.629Z,4.00
2019-06-27T11:18:48.420Z,3.25
2019-06-27T11:19:52.926Z,3.75
2019-06-27T11:20:55.816Z,3.00
2019-06-27T11:21:59.158Z,4.00
2019-06-27T11:23:01.965Z,5.00
2019-06-27T11:24:05.406Z,3.00
2019-06-27T11:25:08.272Z,4.25
2019-06-27T11:26:12.112Z,4.00
2019-06-27T11:27:14.866Z,3.75
2019-06-27T11:28:18.252Z,4.25
2019-06-27T11:29:21.092Z,5.00
2019-06-27T11:30:24.564Z,5.00
2019-06-27T11:31:27.287Z,5.00
2019-06-27T11:32:35.726Z,3.50
2019-06-27T11:33:38.474Z,4.00
2019-06-27T11:34:42.268Z,5.25
2019-06-27T11:35:45.095Z,5.00
2019-06-27T11:36:50.387Z,4.00
2019-06-27T11:37:53.154Z,7.75
2019-06-27T11:38:56.905Z,5.25
2019-06-27T11:39:59.777Z,4.00
2019-06-27T11:41:03.101Z,4.00
2019-06-27T11:42:05.922Z,5.00
2019-06-27T11:43:09.446Z,6.00
2019-06-27T11:44:12.157Z,7.50
2019-06-27T11:45:15.734Z,6.25
2019-06-27T11:46:18.489Z,6.00
2019-06-27T11:47:21.927Z,5.75
2019-06-27T11:48:24.704Z,6.25
2019-06-27T11:49:28.073Z,7.00
2019-06-27T11:50:30.955Z,5.50
2019-06-27T11:51:34.909Z,5.75
2019-06-27T11:52:37.802Z,7.25
2019-06-27T11:53:41.085Z,6.25
2019-06-27T11:54:44.058Z,6.25
2019-06-27T11:55:47.428Z,5.25
2019-06-27T11:56:50.385Z,6.50
2019-06-27T11:57:56.719Z,4.00
2019-06-27T11:58:59.874Z,8.50
2019-06-27T12:00:03.309Z,7.50
2019-06-27T12:01:06.033Z,8.75
2019-06-27T12:02:09.550Z,8.75
2019-06-27T12:03:12.711Z,7.00
2019-06-27T12:04:16.332Z,5.25
2019-06-27T12:05:19.247Z,6.00
2019-06-27T12:06:22.532Z,5.00
2019-06-27T12:07:25.524Z,5.00
2019-06-27T12:08:29.066Z,5.75
2019-06-27T12:09:32.517Z,6.50
2019-06-27T12:10:38.039Z,6.25
2019-06-27T12:11:42.200Z,5.75
2019-06-27T12:12:46.118Z,6.75
2019-06-27T12:13:49.486Z,6.00
2019-06-27T12:14:53.494Z,9.00
2019-06-27T12:15:57.169Z,5.75
2019-06-27T12:17:00.724Z,7.50
2019-06-27T12:18:03.777Z,5.50
2019-06-27T12:19:07.386Z,5.25
2019-06-27T12:20:10.425Z,6.00
2019-06-27T12:21:14.179Z,7.00
2019-06-27T12:22:17.807Z,6.00
2019-06-27T12:23:21.459Z,6.75
2019-06-27T12:24:24.542Z,5.50
2019-06-27T12:25:27.994Z,4.75
2019-06-27T12:26:30.959Z,6.25
2019-06-27T12:27:34.762Z,5.00
2019-06-27T12:28:40.711Z,4.50
2019-06-27T12:29:44.615Z,5.00
2019-06-27T12:30:47.790Z,5.75
2019-06-27T12:31:51.878Z,3.75
2019-06-27T12:32:54.854Z,5.00
2019-06-27T12:34:07.024Z,6.00
2019-06-27T12:35:03.396Z,7.00
2019-06-27T12:36:06.618Z,5.50
2019-06-27T12:37:09.483Z,9.50
2019-06-27T12:38:12.873Z,7.75
2019-06-27T12:39:15.641Z,7.25
2019-06-27T12:40:19.318Z,7.00
2019-06-27T12:41:21.976Z,5.50
2019-06-27T12:42:32.383Z,5.25
2019-06-27T12:43:29.865Z,5.75
2019-06-27T12:44:33.222Z,5.00
2019-06-27T12:45:35.891Z,5.75
2019-06-27T12:46:39.516Z,6.75
2019-06-27T12:47:43.979Z,8.75
2019-06-27T12:48:47.494Z,6.75
2019-06-27T12:50:02.075Z,9.00
2019-06-27T12:50:55.912Z,7.00
2019-06-27T12:51:58.663Z,6.75
2019-06-27T12:53:02.414Z,9.00
2019-06-27T12:54:05.254Z,5.75
2019-06-27T12:55:08.769Z,6.50
2019-06-27T12:56:11.596Z,5.75
2019-06-27T12:57:15.202Z,6.50
2019-06-27T12:58:17.903Z,4.75
2019-06-27T12:59:21.991Z,7.00
2019-06-27T13:00:24.773Z,6.00
2019-06-27T13:01:28.562Z,6.50
2019-06-27T13:02:31.341Z,5.75
2019-06-27T13:03:35.099Z,7.00
2019-06-27T13:04:37.759Z,7.00
2019-06-27T13:05:41.158Z,6.75
2019-06-27T13:06:43.942Z,5.75
2019-06-27T13:07:48.146Z,6.50
2019-06-27T13:08:50.810Z,7.00
2019-06-27T13:09:54.155Z,8.50
2019-06-27T13:10:57.191Z,8.50
2019-06-27T13:12:01.277Z,7.25
2019-06-27T13:13:04.257Z,5.00
2019-06-27T13:14:07.617Z,7.00
2019-06-27T13:15:10.435Z,5.50
2019-06-27T13:16:14.079Z,6.50
2019-06-27T13:17:16.906Z,7.00
2019-06-27T13:18:20.638Z,6.75
2019-06-27T13:19:23.442Z,6.75
2019-06-27T13:20:26.730Z,7.50
2019-06-27T13:21:29.678Z,5.00
2019-06-27T13:22:33.049Z,6.00
2019-06-27T13:23:36.404Z,13.50
2019-06-27T13:24:40.107Z,13.25
2019-06-27T13:25:44.697Z,8.00
2019-06-27T13:26:48.110Z,7.75
2019-06-27T13:27:51.061Z,8.00
2019-06-27T13:28:54.454Z,7.75
2019-06-27T13:29:57.092Z,5.50
2019-06-27T13:31:00.527Z,6.00
2019-06-27T13:32:03.211Z,9.25
2019-06-27T13:33:06.435Z,6.50
2019-06-27T13:34:09.514Z,5.00
2019-06-27T13:35:16.140Z,6.00
2019-06-27T13:36:19.180Z,5.75
2019-06-27T13:37:22.613Z,6.00
2019-06-27T13:38:25.519Z,6.25
2019-06-27T13:39:28.884Z,6.75
2019-06-27T13:40:32.155Z,6.50
2019-06-27T13:41:35.668Z,8.00
2019-06-27T13:42:38.878Z,6.50
2019-06-27T13:43:42.642Z,7.00
2019-06-27T13:44:46.671Z,5.50
2019-06-27T13:45:50.333Z,6.00
2019-06-27T13:46:53.233Z,6.00
2019-06-27T13:47:56.633Z,7.75
2019-06-27T13:48:59.620Z,5.75
2019-06-27T13:50:03.102Z,5.50
2019-06-27T13:51:05.847Z,5.00
2019-06-27T13:52:09.745Z,4.25
2019-06-27T13:53:14.445Z,4.00
2019-06-27T13:54:18.353Z,5.75
2019-06-27T13:55:23.963Z,6.75
2019-06-27T13:56:26.134Z,5.75
2019-06-27T13:57:28.904Z,5.00
2019-06-27T13:58:35.002Z,6.75
2019-06-27T13:59:37.812Z,4.00
2019-06-27T14:00:41.213Z,7.00
2019-06-27T14:01:44.575Z,8.50
2019-06-27T14:02:50.515Z,5.00
2019-06-27T14:03:52.764Z,6.00
2019-06-27T14:04:57.795Z,5.75
2019-06-27T14:06:03.149Z,6.00
2019-06-27T14:07:06.562Z,7.25
2019-06-27T14:08:09.423Z,5.00
2019-06-27T14:09:22.842Z,6.25
2019-06-27T14:10:17.757Z,6.00
2019-06-27T14:11:21.447Z,5.00
2019-06-27T14:12:24.255Z,7.25
2019-06-27T14:13:27.514Z,5.00
2019-06-27T14:14:30.256Z,7.00
2019-06-27T14:15:33.532Z,7.00